Aérodrome :
LOGIN :

S'inscrire | Disclaimer

   EN    FR    IT 

 










Légende :    VFR   VFR Marginal   IFR   IFR Intensif   IFR Très Intensif
Visi : 
Plafond : 
>= 8 km
>= 3000ft
5 à 8 km
1000 à 3000 ft
1500m à 5 km
500 à 1000 ft
800 à 1500m
200 à 500 ft
< 800m
< 200 ft
Symboles :   Orages  Brouillard  Fortes neiges  Fortes précipitations  Vent > 20 kt
SIGMETs :   Divers  Orages  Givrage  Turbulence  Onde Orograph.  Cendres Volcan.







- Altitude de l'aérodrome : 512 ft
- Code IATA : URO
- Voir les cartes d'approche


LFOP - Rouen Vallée de Seine

DERNIER METAR :
  • 200130Z AUTO 16004KT 0700 0600 R22/1200D FG VV/// 06/05 Q1023

METARs EXPIRÉS :
  • 200100Z AUTO 17002KT 2600 0900 R22/P2000 BCFG NSC 06/05 Q1023
  • 200030Z AUTO 19003KT 5000 0700 R22/P2000 BCFG NSC 06/05 Q1023
  • 200000Z AUTO 20003KT 5000 BR NSC 06/06 Q1023
  • 192330Z AUTO 19002KT 5000 BR NSC 07/06 Q1023
  • 192300Z AUTO 23002KT 7000 1200 R22/P2000 NSC 07/06 Q1023

TAF TAF LFOP
Valide du 19 à 18h jusqu'au 20 à 18h UTC


191700Z 1918/2018 31008KT CAVOK
TEMPO 1922/2006 1500 BCFG
ATIS : +33 2 35 80 80 34
Météo : +33 2 32 86 52 80
Pas de NOTAMs connus pour ce terrain.



MET'MAP, la Météo Aéronautique d'un coup d'oeil ! - Copyright ORBIFLY Décembre 2007 - Disclaimer

ORBIFLY MET'MAP TEAM :

Programmation & Développement : Alexandra Zaïnal
Conception & Développement : Baudouin d'Aumeries
Co-Programmation & Développement : Marc-Olivier Méhu
Soutien technique & logistique : Manuel Goepfert

Contact : metmap@orbifly.com




SOURCES & CREDITS :

   NOAA